createdAt,value
2019-01-19T00:02:46.936Z,11.87
2019-01-19T00:08:32.090Z,13.80
2019-01-19T00:14:17.832Z,8.97
2019-01-19T00:20:17.972Z,11.60
2019-01-19T00:25:52.927Z,11.67
2019-01-19T00:31:06.992Z,12.50
2019-01-19T00:36:35.596Z,13.13
2019-01-19T00:42:16.590Z,12.77
2019-01-19T00:48:06.347Z,11.43
2019-01-19T00:53:22.190Z,9.50
2019-01-19T00:58:53.043Z,10.33
2019-01-19T01:04:49.705Z,9.90
2019-01-19T01:10:15.850Z,12.63
2019-01-19T01:15:38.722Z,13.37
2019-01-19T01:20:47.963Z,10.13
2019-01-19T01:26:36.642Z,9.70
2019-01-19T01:31:47.508Z,11.13
2019-01-19T01:37:20.126Z,9.47
2019-01-19T01:42:58.734Z,11.83
2019-01-19T01:48:39.087Z,11.17
2019-01-19T01:53:54.436Z,11.40
2019-01-19T01:59:47.823Z,10.50
2019-01-19T02:05:31.170Z,10.90
2019-01-19T02:11:22.402Z,12.13
2019-01-19T02:17:21.316Z,11.83
2019-01-19T02:22:53.811Z,10.43
2019-01-19T02:28:12.074Z,12.73
2019-01-19T02:33:39.284Z,9.77
2019-01-19T02:39:26.281Z,12.97
2019-01-19T02:44:39.737Z,16.90
2019-01-19T02:50:35.261Z,13.20
2019-01-19T02:56:06.835Z,15.27
2019-01-19T03:01:52.305Z,17.67
2019-01-19T03:07:37.017Z,9.57
2019-01-19T03:13:16.472Z,12.30
2019-01-19T03:18:58.357Z,12.50
2019-01-19T03:24:28.731Z,12.30
2019-01-19T03:29:52.215Z,11.37
2019-01-19T03:35:51.976Z,10.43
2019-01-19T03:41:51.164Z,10.63
2019-01-19T03:47:38.816Z,10.67
2019-01-19T03:53:23.094Z,10.80
2019-01-19T03:59:14.324Z,10.17
2019-01-19T04:04:56.838Z,13.73
2019-01-19T04:10:19.001Z,11.57
2019-01-19T04:15:53.324Z,10.53
2019-01-19T04:21:50.928Z,11.20
2019-01-19T04:26:55.958Z,10.03
2019-01-19T04:31:59.693Z,11.27
2019-01-19T04:37:03.310Z,13.50
2019-01-19T04:42:07.220Z,12.20
2019-01-19T04:47:10.588Z,12.43
2019-01-19T04:52:14.099Z,10.37
2019-01-19T04:57:17.533Z,9.37
2019-01-19T05:02:23.924Z,9.40
2019-01-19T05:07:27.472Z,9.40
2019-01-19T05:12:30.887Z,11.23
2019-01-19T05:17:34.501Z,11.60
2019-01-19T05:22:43.712Z,12.43
2019-01-19T05:27:50.836Z,11.97
2019-01-19T05:32:54.218Z,12.30
2019-01-19T05:37:57.644Z,10.57
2019-01-19T05:43:01.089Z,10.70
2019-01-19T05:48:04.247Z,10.80
2019-01-19T05:53:07.669Z,12.07
2019-01-19T05:58:11.065Z,9.60
2019-01-19T06:03:23.758Z,10.00
2019-01-19T06:08:29.829Z,11.73
2019-01-19T06:13:33.344Z,10.07
2019-01-19T06:18:40.081Z,10.50
2019-01-19T06:23:43.391Z,10.70
2019-01-19T06:28:49.726Z,10.70
2019-01-19T06:33:53.243Z,11.17
2019-01-19T06:38:57.432Z,11.70
2019-01-19T06:44:00.884Z,10.60
2019-01-19T06:49:07.087Z,15.03
2019-01-19T06:54:11.352Z,15.30
2019-01-19T06:59:17.467Z,19.90
2019-01-19T07:04:19.801Z,20.00
2019-01-19T07:09:23.100Z,18.00
2019-01-19T07:14:26.420Z,18.30
2019-01-19T07:19:29.894Z,15.63
2019-01-19T07:24:33.410Z,19.47
2019-01-19T07:29:39.688Z,14.57
2019-01-19T07:34:42.997Z,14.70
2019-01-19T07:39:48.253Z,15.50
2019-01-19T07:44:51.576Z,18.50
2019-01-19T07:50:04.537Z,14.90
2019-01-19T07:55:09.230Z,16.47
2019-01-19T08:00:17.778Z,19.47
2019-01-19T08:05:21.292Z,20.43
2019-01-19T08:10:24.500Z,18.27
2019-01-19T08:15:29.477Z,16.23
2019-01-19T08:20:32.547Z,16.60
2019-01-19T08:25:36.068Z,16.57
2019-01-19T08:30:39.468Z,21.87
2019-01-19T08:35:43.867Z,18.83
2019-01-19T08:40:47.334Z,20.27
2019-01-19T08:45:50.984Z,17.27
2019-01-19T08:50:54.466Z,19.93
2019-01-19T08:55:57.902Z,18.80
2019-01-19T09:01:01.154Z,18.17
2019-01-19T09:06:04.636Z,23.87
2019-01-19T09:11:11.117Z,19.30
2019-01-19T09:16:16.556Z,20.90
2019-01-19T09:21:19.777Z,20.13
2019-01-19T09:26:23.041Z,23.30
2019-01-19T09:31:26.581Z,22.23
2019-01-19T09:36:29.933Z,22.33
2019-01-19T09:41:33.231Z,20.80
2019-01-19T09:46:36.359Z,27.20
2019-01-19T09:51:39.157Z,20.73
2019-01-19T09:56:41.976Z,23.10
2019-01-19T10:01:44.843Z,23.20
2019-01-19T10:06:51.218Z,22.20
2019-01-19T10:11:54.417Z,26.60
2019-01-19T10:17:00.677Z,22.93
2019-01-19T10:22:04.506Z,23.80
2019-01-19T10:27:07.476Z,23.03
2019-01-19T10:32:11.016Z,29.40
2019-01-19T10:37:15.841Z,22.87
2019-01-19T10:42:18.651Z,22.80
2019-01-19T10:47:24.666Z,19.67
2019-01-19T10:52:27.549Z,26.43
2019-01-19T10:57:30.367Z,21.00
2019-01-19T11:02:33.302Z,18.97
2019-01-19T11:07:36.506Z,21.50
2019-01-19T11:12:41.843Z,19.33
2019-01-19T11:17:50.064Z,18.77
2019-01-19T11:22:53.047Z,16.93
2019-01-19T11:27:56.340Z,17.80
2019-01-19T11:33:05.686Z,16.53
2019-01-19T11:38:12.041Z,16.87
2019-01-19T11:43:14.254Z,17.17
2019-01-19T11:48:17.574Z,14.30
2019-01-19T11:53:21.136Z,13.53
2019-01-19T11:58:23.998Z,13.80
2019-01-19T12:03:27.343Z,12.93
2019-01-19T12:08:30.191Z,12.80
2019-01-19T12:13:36.908Z,14.83
2019-01-19T12:18:42.884Z,12.40
2019-01-19T12:23:46.101Z,12.63
2019-01-19T12:28:52.092Z,12.00
2019-01-19T12:33:55.587Z,12.40
2019-01-19T12:38:58.811Z,10.77
2019-01-19T12:44:02.405Z,11.67
2019-01-19T12:49:06.101Z,10.57
2019-01-19T12:54:09.821Z,8.37
2019-01-19T12:59:13.230Z,9.83
2019-01-19T13:04:16.646Z,10.37
2019-01-19T13:09:41.264Z,9.40
2019-01-19T13:15:10.063Z,12.40
2019-01-19T13:20:57.920Z,17.30
2019-01-19T13:26:54.990Z,11.00
2019-01-19T13:32:20.026Z,11.07
2019-01-19T13:37:58.230Z,11.23
2019-01-19T13:43:37.998Z,10.87
2019-01-19T13:49:06.500Z,13.70
2019-01-19T13:54:57.279Z,16.17
2019-01-19T14:00:49.692Z,14.63
2019-01-19T14:06:33.365Z,12.20
2019-01-19T14:12:23.668Z,13.30
2019-01-19T14:17:58.787Z,12.33
2019-01-19T14:23:27.921Z,13.70
2019-01-19T14:29:18.129Z,16.20
2019-01-19T14:35:06.395Z,16.93
2019-01-19T14:40:48.312Z,18.90
2019-01-19T14:46:30.331Z,18.90
2019-01-19T14:51:54.770Z,16.40
2019-01-19T14:57:54.467Z,18.77
2019-01-19T15:04:00.654Z,23.93
2019-01-19T15:09:37.654Z,24.53
2019-01-19T15:15:38.203Z,18.83
2019-01-19T15:21:01.792Z,31.17
2019-01-19T15:26:44.218Z,31.40
2019-01-19T15:32:17.841Z,23.83
2019-01-19T15:37:53.507Z,19.53
2019-01-19T15:43:30.564Z,20.60
2019-01-19T15:49:06.889Z,20.90
2019-01-19T15:54:48.120Z,18.90
2019-01-19T16:00:33.592Z,21.20
2019-01-19T16:06:13.352Z,16.60
2019-01-19T16:12:04.180Z,18.60
2019-01-19T16:17:58.235Z,17.43
2019-01-19T16:23:55.966Z,21.27
2019-01-19T16:29:30.408Z,24.30
2019-01-19T16:35:18.057Z,19.93
2019-01-19T16:41:20.963Z,22.43
2019-01-19T16:47:17.296Z,17.57
2019-01-19T16:53:05.168Z,20.50
2019-01-19T16:59:05.211Z,20.17
2019-01-19T17:04:44.465Z,16.43
2019-01-19T17:10:21.157Z,19.90
2019-01-19T17:15:52.424Z,19.23
2019-01-19T17:21:46.410Z,17.90
2019-01-19T17:27:16.148Z,16.27
2019-01-19T17:32:54.527Z,19.33
2019-01-19T17:38:27.590Z,19.40
2019-01-19T17:44:20.258Z,21.87
2019-01-19T17:50:26.544Z,22.60
2019-01-19T17:56:13.578Z,20.53
2019-01-19T18:01:44.956Z,20.77
2019-01-19T18:07:30.547Z,26.00
2019-01-19T18:13:04.274Z,19.33
2019-01-19T18:18:39.635Z,18.27
2019-01-19T18:24:14.587Z,27.37
2019-01-19T18:29:43.807Z,23.20
2019-01-19T18:35:36.323Z,23.57
2019-01-19T18:41:26.085Z,22.20
2019-01-19T18:46:57.434Z,29.17
2019-01-19T18:52:13.761Z,26.80
2019-01-19T18:58:00.399Z,26.60
2019-01-19T19:03:38.890Z,31.00
2019-01-19T19:09:37.521Z,31.07
2019-01-19T19:15:28.346Z,23.50
2019-01-19T19:21:10.518Z,23.57
2019-01-19T19:26:58.521Z,24.93
2019-01-19T19:32:24.470Z,25.73
2019-01-19T19:38:05.456Z,23.57
2019-01-19T19:43:34.264Z,22.03
2019-01-19T19:49:16.068Z,26.13
2019-01-19T19:54:19.340Z,22.03
2019-01-19T19:59:22.598Z,24.37
2019-01-19T20:04:25.917Z,25.03
2019-01-19T20:09:29.293Z,25.40
2019-01-19T20:14:32.695Z,27.87
2019-01-19T20:19:36.246Z,25.77
2019-01-19T20:24:39.414Z,28.20
2019-01-19T20:29:42.766Z,26.93
2019-01-19T20:34:46.074Z,26.40
2019-01-19T20:39:52.664Z,26.67
2019-01-19T20:44:56.004Z,29.20
2019-01-19T20:49:59.414Z,29.70
2019-01-19T20:55:06.381Z,28.67
2019-01-19T21:00:15.696Z,27.93
2019-01-19T21:05:19.352Z,27.00
2019-01-19T21:10:22.815Z,25.57
2019-01-19T21:15:31.933Z,27.43
2019-01-19T21:20:38.328Z,27.27
2019-01-19T21:25:44.572Z,27.77
2019-01-19T21:30:47.883Z,31.60
2019-01-19T21:35:51.401Z,35.57
2019-01-19T21:40:54.708Z,31.73
2019-01-19T21:45:58.226Z,28.40
2019-01-19T21:51:07.303Z,33.97
2019-01-19T21:56:10.885Z,29.23
2019-01-19T22:01:17.502Z,26.10
2019-01-19T22:06:20.712Z,24.93
2019-01-19T22:11:26.816Z,28.70
2019-01-19T22:16:30.199Z,33.10
2019-01-19T22:21:33.588Z,29.67
2019-01-19T22:26:37.545Z,29.30
2019-01-19T22:31:40.926Z,24.77
2019-01-19T22:36:44.360Z,25.40
2019-01-19T22:41:51.824Z,27.23
2019-01-19T22:46:55.871Z,26.50
2019-01-19T22:51:59.253Z,24.63
2019-01-19T22:57:02.942Z,26.37
2019-01-19T23:02:15.362Z,30.30
2019-01-19T23:07:19.045Z,23.70
2019-01-19T23:12:29.974Z,26.83
2019-01-19T23:17:33.345Z,23.83
2019-01-19T23:22:37.064Z,26.83
2019-01-19T23:27:40.479Z,28.50
2019-01-19T23:32:43.834Z,26.37
2019-01-19T23:37:47.303Z,30.00
2019-01-19T23:42:50.738Z,28.60
2019-01-19T23:47:54.064Z,26.43
2019-01-19T23:52:57.255Z,25.00
2019-01-19T23:58:02.082Z,29.63
